Main page
METAR-TAF:

METAR-TAF

Airports :

Shimla Airport

Shimla, India

latitude: 31-04-54N, longitude: 77-04-05E, elevation: 1546 m

METAR: missing

Time: 02:54 (21:24 UTC)

Forecast

The report was made 16 hours and 24 minutes ago, at 05:00 UTC
Forecast valid from 20 at 06 UTC to 20 at 15 UTC
Wind 5 kt from the South/Southeast
Visibility: 5000 m
Scattered clouds at a height of 3000 ft
Broken clouds at a height of 9000 ft
haze, light rain
Becoming
from 20 at 09 UTC to 20 at 14 UTC
Visibility: 3000 m
Few clouds at a height of 3500 ft, Cumulonimbus.
Overcast at a height of 9000 ft
thunderstorm, light rain

TAF: VISM 200500Z 2006/2015 15005KT 5000 HZ -RA SCT030 BKN090 BECMG 2009/2014 3000 -TSRA FEW035CB OVC090

Weather observations and forecasts of more than 4000 airports (METAR and TAF reports).

The available stations are represented by yellow and red dots on the map.

Hover mouse over dot to see the name of the station.

Then click to see weather observations and forecasts.

To change the map : click on the green buttons with a black cross to zoom in, on the green button with a dash to zoom out, or on the green arrows for adjacent maps.


METAR-TAF: